sensor_id;sensor_type;location;lat;lon;timestamp;P1;durP1;ratioP1;P2;durP2;ratioP2
14358;SDS011;7263;49.418;11.064;2022-09-29T00:01:29;7.73;;;5.63;;
14358;SDS011;7263;49.418;11.064;2022-09-29T00:03:56;7.90;;;6.00;;
14358;SDS011;7263;49.418;11.064;2022-09-29T00:06:23;5.90;;;5.40;;
14358;SDS011;7263;49.418;11.064;2022-09-29T00:08:52;6.13;;;5.53;;
14358;SDS011;7263;49.418;11.064;2022-09-29T00:11:19;9.57;;;5.70;;
14358;SDS011;7263;49.418;11.064;2022-09-29T00:13:46;8.90;;;5.43;;
14358;SDS011;7263;49.418;11.064;2022-09-29T00:16:13;7.20;;;5.53;;
14358;SDS011;7263;49.418;11.064;2022-09-29T00:18:41;9.87;;;6.00;;
14358;SDS011;7263;49.418;11.064;2022-09-29T00:21:08;5.87;;;5.23;;
14358;SDS011;7263;49.418;11.064;2022-09-29T00:23:39;7.03;;;5.47;;
14358;SDS011;7263;49.418;11.064;2022-09-29T00:26:08;6.03;;;5.27;;
14358;SDS011;7263;49.418;11.064;2022-09-29T00:28:38;6.50;;;5.03;;
14358;SDS011;7263;49.418;11.064;2022-09-29T00:31:06;7.03;;;5.40;;
14358;SDS011;7263;49.418;11.064;2022-09-29T00:33:38;5.90;;;5.30;;
14358;SDS011;7263;49.418;11.064;2022-09-29T00:36:05;8.27;;;5.53;;
14358;SDS011;7263;49.418;11.064;2022-09-29T00:38:35;6.73;;;5.10;;
14358;SDS011;7263;49.418;11.064;2022-09-29T00:41:02;5.73;;;5.20;;
14358;SDS011;7263;49.418;11.064;2022-09-29T00:46:19;5.50;;;5.00;;
14358;SDS011;7263;49.418;11.064;2022-09-29T00:48:47;11.07;;;5.60;;
14358;SDS011;7263;49.418;11.064;2022-09-29T00:51:15;7.00;;;5.70;;
14358;SDS011;7263;49.418;11.064;2022-09-29T00:53:42;7.23;;;5.43;;
14358;SDS011;7263;49.418;11.064;2022-09-29T00:56:10;6.17;;;5.50;;
14358;SDS011;7263;49.418;11.064;2022-09-29T00:58:41;8.17;;;5.37;;
14358;SDS011;7263;49.418;11.064;2022-09-29T01:01:11;9.10;;;6.00;;
14358;SDS011;7263;49.418;11.064;2022-09-29T01:03:39;5.90;;;5.30;;
14358;SDS011;7263;49.418;11.064;2022-09-29T01:06:10;5.63;;;4.70;;
14358;SDS011;7263;49.418;11.064;2022-09-29T01:08:42;6.13;;;5.03;;
14358;SDS011;7263;49.418;11.064;2022-09-29T01:11:12;6.20;;;5.17;;
14358;SDS011;7263;49.418;11.064;2022-09-29T01:13:40;9.63;;;5.57;;
14358;SDS011;7263;49.418;11.064;2022-09-29T01:16:07;8.03;;;5.17;;
14358;SDS011;7263;49.418;11.064;2022-09-29T01:18:36;8.73;;;5.10;;
14358;SDS011;7263;49.418;11.064;2022-09-29T01:21:07;7.27;;;5.57;;
14358;SDS011;7263;49.418;11.064;2022-09-29T01:23:47;6.00;;;5.10;;
14358;SDS011;7263;49.418;11.064;2022-09-29T01:32:31;7.03;;;6.10;;
14358;SDS011;7263;49.418;11.064;2022-09-29T01:35:15;7.10;;;6.33;;
14358;SDS011;7263;49.418;11.064;2022-09-29T01:37:52;7.17;;;5.73;;
14358;SDS011;7263;49.418;11.064;2022-09-29T01:40:28;7.03;;;6.07;;
14358;SDS011;7263;49.418;11.064;2022-09-29T01:43:03;6.13;;;5.53;;
14358;SDS011;7263;49.418;11.064;2022-09-29T01:45:33;6.40;;;5.80;;
14358;SDS011;7263;49.418;11.064;2022-09-29T01:48:02;9.50;;;6.50;;
14358;SDS011;7263;49.418;11.064;2022-09-29T01:50:33;8.90;;;5.67;;
14358;SDS011;7263;49.418;11.064;2022-09-29T01:53:06;7.07;;;5.93;;
14358;SDS011;7263;49.418;11.064;2022-09-29T01:55:37;8.63;;;6.10;;
14358;SDS011;7263;49.418;11.064;2022-09-29T01:58:12;6.63;;;5.93;;
14358;SDS011;7263;49.418;11.064;2022-09-29T02:00:42;7.10;;;5.90;;
14358;SDS011;7263;49.418;11.064;2022-09-29T02:03:15;7.00;;;6.10;;
14358;SDS011;7263;49.418;11.064;2022-09-29T02:05:45;8.50;;;5.90;;
14358;SDS011;7263;49.418;11.064;2022-09-29T02:08:15;7.73;;;5.83;;
14358;SDS011;7263;49.418;11.064;2022-09-29T02:10:48;6.80;;;6.10;;
14358;SDS011;7263;49.418;11.064;2022-09-29T02:13:19;8.03;;;6.07;;
14358;SDS011;7263;49.418;11.064;2022-09-29T02:15:49;7.23;;;6.40;;
14358;SDS011;7263;49.418;11.064;2022-09-29T02:18:19;6.63;;;5.97;;
14358;SDS011;7263;49.418;11.064;2022-09-29T02:20:48;6.83;;;5.83;;
14358;SDS011;7263;49.418;11.064;2022-09-29T02:23:16;10.77;;;6.10;;
14358;SDS011;7263;49.418;11.064;2022-09-29T02:25:43;6.97;;;6.27;;
14358;SDS011;7263;49.418;11.064;2022-09-29T02:28:13;6.43;;;5.83;;
14358;SDS011;7263;49.418;11.064;2022-09-29T02:30:41;6.60;;;6.00;;
14358;SDS011;7263;49.418;11.064;2022-09-29T02:33:16;8.57;;;6.60;;
14358;SDS011;7263;49.418;11.064;2022-09-29T02:35:49;6.40;;;5.67;;
14358;SDS011;7263;49.418;11.064;2022-09-29T02:38:24;6.93;;;5.57;;
14358;SDS011;7263;49.418;11.064;2022-09-29T02:41:01;7.00;;;6.30;;
14358;SDS011;7263;49.418;11.064;2022-09-29T02:43:38;9.67;;;6.10;;
14358;SDS011;7263;49.418;11.064;2022-09-29T02:46:24;6.97;;;5.87;;
14358;SDS011;7263;49.418;11.064;2022-09-29T02:49:07;8.27;;;6.73;;
14358;SDS011;7263;49.418;11.064;2022-09-29T02:51:49;8.17;;;5.73;;
14358;SDS011;7263;49.418;11.064;2022-09-29T02:54:20;6.67;;;5.90;;
14358;SDS011;7263;49.418;11.064;2022-09-29T02:56:53;8.30;;;5.73;;
14358;SDS011;7263;49.418;11.064;2022-09-29T02:59:31;6.70;;;5.60;;
14358;SDS011;7263;49.418;11.064;2022-09-29T03:02:02;8.27;;;6.20;;
14358;SDS011;7263;49.418;11.064;2022-09-29T03:04:30;6.43;;;5.77;;
14358;SDS011;7263;49.418;11.064;2022-09-29T03:06:57;7.83;;;6.67;;
14358;SDS011;7263;49.418;11.064;2022-09-29T03:09:24;6.77;;;5.73;;
14358;SDS011;7263;49.418;11.064;2022-09-29T03:11:52;7.93;;;6.20;;
14358;SDS011;7263;49.418;11.064;2022-09-29T03:14:19;6.57;;;5.97;;
14358;SDS011;7263;49.418;11.064;2022-09-29T03:16:46;7.20;;;5.73;;
14358;SDS011;7263;49.418;11.064;2022-09-29T03:19:13;7.70;;;6.03;;
14358;SDS011;7263;49.418;11.064;2022-09-29T03:21:41;7.30;;;5.47;;
14358;SDS011;7263;49.418;11.064;2022-09-29T03:24:08;6.63;;;5.83;;
14358;SDS011;7263;49.418;11.064;2022-09-29T03:26:35;6.17;;;5.57;;
14358;SDS011;7263;49.418;11.064;2022-09-29T03:29:02;8.07;;;5.83;;
14358;SDS011;7263;49.418;11.064;2022-09-29T03:31:29;8.03;;;6.30;;
14358;SDS011;7263;49.418;11.064;2022-09-29T03:33:56;8.73;;;5.97;;
14358;SDS011;7263;49.418;11.064;2022-09-29T03:36:23;7.53;;;6.00;;
14358;SDS011;7263;49.418;11.064;2022-09-29T03:38:51;6.20;;;5.57;;
14358;SDS011;7263;49.418;11.064;2022-09-29T03:41:17;8.23;;;6.30;;
14358;SDS011;7263;49.418;11.064;2022-09-29T03:43:45;6.93;;;6.20;;
14358;SDS011;7263;49.418;11.064;2022-09-29T03:46:12;7.63;;;6.57;;
14358;SDS011;7263;49.418;11.064;2022-09-29T03:48:39;8.43;;;6.20;;
14358;SDS011;7263;49.418;11.064;2022-09-29T03:51:07;12.17;;;6.87;;
14358;SDS011;7263;49.418;11.064;2022-09-29T03:53:34;8.73;;;6.53;;
14358;SDS011;7263;49.418;11.064;2022-09-29T03:56:03;8.50;;;6.60;;
14358;SDS011;7263;49.418;11.064;2022-09-29T03:58:30;7.57;;;6.87;;
14358;SDS011;7263;49.418;11.064;2022-09-29T04:00:57;8.60;;;6.20;;
14358;SDS011;7263;49.418;11.064;2022-09-29T04:03:25;9.37;;;7.37;;
14358;SDS011;7263;49.418;11.064;2022-09-29T04:05:52;7.93;;;7.13;;
14358;SDS011;7263;49.418;11.064;2022-09-29T04:08:19;7.97;;;6.93;;
14358;SDS011;7263;49.418;11.064;2022-09-29T04:10:46;8.57;;;7.13;;
14358;SDS011;7263;49.418;11.064;2022-09-29T04:13:15;7.63;;;6.87;;
14358;SDS011;7263;49.418;11.064;2022-09-29T04:15:42;8.40;;;7.27;;
14358;SDS011;7263;49.418;11.064;2022-09-29T04:18:09;10.50;;;7.20;;
14358;SDS011;7263;49.418;11.064;2022-09-29T04:20:36;8.57;;;7.03;;
14358;SDS011;7263;49.418;11.064;2022-09-29T04:23:03;7.93;;;7.13;;
14358;SDS011;7263;49.418;11.064;2022-09-29T04:25:30;8.67;;;7.40;;
14358;SDS011;7263;49.418;11.064;2022-09-29T04:27:58;7.50;;;6.77;;
14358;SDS011;7263;49.418;11.064;2022-09-29T04:30:26;10.17;;;7.30;;
14358;SDS011;7263;49.418;11.064;2022-09-29T04:32:54;8.53;;;7.53;;
14358;SDS011;7263;49.418;11.064;2022-09-29T04:35:21;8.83;;;6.93;;
14358;SDS011;7263;49.418;11.064;2022-09-29T04:37:48;8.23;;;7.03;;
14358;SDS011;7263;49.418;11.064;2022-09-29T04:40:15;8.57;;;7.50;;
14358;SDS011;7263;49.418;11.064;2022-09-29T04:42:41;11.07;;;9.80;;
14358;SDS011;7263;49.418;11.064;2022-09-29T04:45:09;16.53;;;14.50;;
14358;SDS011;7263;49.418;11.064;2022-09-29T04:47:37;9.93;;;8.93;;
14358;SDS011;7263;49.418;11.064;2022-09-29T04:50:04;10.13;;;8.47;;
14358;SDS011;7263;49.418;11.064;2022-09-29T04:52:33;23.83;;;20.97;;
14358;SDS011;7263;49.418;11.064;2022-09-29T04:55:01;10.60;;;9.50;;
14358;SDS011;7263;49.418;11.064;2022-09-29T04:57:27;13.43;;;11.13;;
14358;SDS011;7263;49.418;11.064;2022-09-29T04:59:54;20.27;;;16.50;;
14358;SDS011;7263;49.418;11.064;2022-09-29T05:02:21;10.20;;;9.23;;
14358;SDS011;7263;49.418;11.064;2022-09-29T05:04:49;14.00;;;12.50;;
14358;SDS011;7263;49.418;11.064;2022-09-29T05:07:16;12.73;;;11.40;;
14358;SDS011;7263;49.418;11.064;2022-09-29T05:09:43;10.37;;;9.37;;
14358;SDS011;7263;49.418;11.064;2022-09-29T05:12:10;11.23;;;9.57;;
14358;SDS011;7263;49.418;11.064;2022-09-29T05:14:37;10.87;;;9.77;;
14358;SDS011;7263;49.418;11.064;2022-09-29T05:17:04;10.47;;;9.40;;
14358;SDS011;7263;49.418;11.064;2022-09-29T05:19:31;10.90;;;9.20;;
14358;SDS011;7263;49.418;11.064;2022-09-29T05:21:59;10.80;;;9.70;;
14358;SDS011;7263;49.418;11.064;2022-09-29T05:24:26;10.97;;;9.80;;
14358;SDS011;7263;49.418;11.064;2022-09-29T05:26:53;13.07;;;10.37;;
14358;SDS011;7263;49.418;11.064;2022-09-29T05:29:20;11.40;;;10.30;;
14358;SDS011;7263;49.418;11.064;2022-09-29T05:31:47;12.57;;;9.67;;
14358;SDS011;7263;49.418;11.064;2022-09-29T05:34:14;15.30;;;12.90;;
14358;SDS011;7263;49.418;11.064;2022-09-29T05:36:41;11.27;;;8.83;;
14358;SDS011;7263;49.418;11.064;2022-09-29T05:39:09;14.57;;;11.53;;
14358;SDS011;7263;49.418;11.064;2022-09-29T05:41:36;10.10;;;9.00;;
14358;SDS011;7263;49.418;11.064;2022-09-29T05:44:04;11.17;;;9.97;;
14358;SDS011;7263;49.418;11.064;2022-09-29T05:46:31;23.10;;;10.30;;
14358;SDS011;7263;49.418;11.064;2022-09-29T05:48:58;15.47;;;11.63;;
14358;SDS011;7263;49.418;11.064;2022-09-29T05:51:25;14.33;;;9.00;;
14358;SDS011;7263;49.418;11.064;2022-09-29T05:53:52;11.90;;;8.57;;
14358;SDS011;7263;49.418;11.064;2022-09-29T05:56:21;9.83;;;8.93;;
14358;SDS011;7263;49.418;11.064;2022-09-29T05:58:49;11.03;;;8.73;;
14358;SDS011;7263;49.418;11.064;2022-09-29T06:01:17;16.47;;;14.93;;
14358;SDS011;7263;49.418;11.064;2022-09-29T06:03:45;9.50;;;8.60;;
14358;SDS011;7263;49.418;11.064;2022-09-29T06:06:13;11.37;;;10.17;;
14358;SDS011;7263;49.418;11.064;2022-09-29T06:08:42;8.47;;;7.70;;
14358;SDS011;7263;49.418;11.064;2022-09-29T06:11:10;8.53;;;7.70;;
14358;SDS011;7263;49.418;11.064;2022-09-29T06:13:39;7.63;;;6.90;;
14358;SDS011;7263;49.418;11.064;2022-09-29T06:16:07;12.73;;;7.70;;
14358;SDS011;7263;49.418;11.064;2022-09-29T06:18:34;9.97;;;7.10;;
14358;SDS011;7263;49.418;11.064;2022-09-29T06:21:02;11.33;;;7.20;;
14358;SDS011;7263;49.418;11.064;2022-09-29T06:23:30;9.80;;;8.90;;
14358;SDS011;7263;49.418;11.064;2022-09-29T06:25:57;11.00;;;6.50;;
14358;SDS011;7263;49.418;11.064;2022-09-29T06:28:26;8.53;;;7.53;;
14358;SDS011;7263;49.418;11.064;2022-09-29T06:30:58;9.23;;;7.10;;
14358;SDS011;7263;49.418;11.064;2022-09-29T06:33:25;13.40;;;6.67;;
14358;SDS011;7263;49.418;11.064;2022-09-29T06:35:52;8.77;;;6.63;;
14358;SDS011;7263;49.418;11.064;2022-09-29T06:38:39;7.77;;;7.00;;
14358;SDS011;7263;49.418;11.064;2022-09-29T06:41:07;7.97;;;7.10;;
14358;SDS011;7263;49.418;11.064;2022-09-29T06:43:34;14.07;;;8.17;;
14358;SDS011;7263;49.418;11.064;2022-09-29T06:46:03;8.90;;;7.00;;
14358;SDS011;7263;49.418;11.064;2022-09-29T06:48:30;14.10;;;6.50;;
14358;SDS011;7263;49.418;11.064;2022-09-29T06:50:57;9.10;;;7.17;;
14358;SDS011;7263;49.418;11.064;2022-09-29T06:53:24;8.67;;;7.67;;
14358;SDS011;7263;49.418;11.064;2022-09-29T06:55:51;7.17;;;6.53;;
14358;SDS011;7263;49.418;11.064;2022-09-29T06:58:19;6.73;;;6.13;;
14358;SDS011;7263;49.418;11.064;2022-09-29T07:00:47;6.90;;;6.13;;
14358;SDS011;7263;49.418;11.064;2022-09-29T07:03:16;6.80;;;6.00;;
14358;SDS011;7263;49.418;11.064;2022-09-29T07:05:42;6.93;;;6.23;;
14358;SDS011;7263;49.418;11.064;2022-09-29T07:08:09;6.20;;;5.70;;
14358;SDS011;7263;49.418;11.064;2022-09-29T07:10:36;6.10;;;5.50;;
14358;SDS011;7263;49.418;11.064;2022-09-29T07:13:03;6.20;;;5.70;;
14358;SDS011;7263;49.418;11.064;2022-09-29T07:15:32;5.80;;;5.30;;
14358;SDS011;7263;49.418;11.064;2022-09-29T07:18:00;5.77;;;5.07;;
14358;SDS011;7263;49.418;11.064;2022-09-29T07:20:28;5.40;;;4.90;;
14358;SDS011;7263;49.418;11.064;2022-09-29T07:22:56;5.63;;;5.13;;
14358;SDS011;7263;49.418;11.064;2022-09-29T07:25:24;5.83;;;5.20;;
14358;SDS011;7263;49.418;11.064;2022-09-29T07:27:51;5.87;;;5.07;;
14358;SDS011;7263;49.418;11.064;2022-09-29T07:30:17;7.27;;;4.80;;
14358;SDS011;7263;49.418;11.064;2022-09-29T07:32:45;4.83;;;4.43;;
14358;SDS011;7263;49.418;11.064;2022-09-29T07:35:11;5.50;;;4.30;;
14358;SDS011;7263;49.418;11.064;2022-09-29T07:37:39;5.00;;;4.50;;
14358;SDS011;7263;49.418;11.064;2022-09-29T07:40:07;5.00;;;4.50;;
14358;SDS011;7263;49.418;11.064;2022-09-29T07:42:34;4.73;;;4.33;;
14358;SDS011;7263;49.418;11.064;2022-09-29T07:45:01;4.63;;;4.23;;
14358;SDS011;7263;49.418;11.064;2022-09-29T07:47:28;4.70;;;4.30;;
14358;SDS011;7263;49.418;11.064;2022-09-29T07:49:55;5.43;;;4.93;;
14358;SDS011;7263;49.418;11.064;2022-09-29T07:52:23;6.83;;;5.40;;
14358;SDS011;7263;49.418;11.064;2022-09-29T07:54:51;5.27;;;4.77;;
14358;SDS011;7263;49.418;11.064;2022-09-29T07:57:18;4.90;;;4.30;;
14358;SDS011;7263;49.418;11.064;2022-09-29T07:59:45;5.43;;;4.70;;
14358;SDS011;7263;49.418;11.064;2022-09-29T08:02:12;4.77;;;4.37;;
14358;SDS011;7263;49.418;11.064;2022-09-29T08:04:39;5.53;;;4.80;;
14358;SDS011;7263;49.418;11.064;2022-09-29T08:07:05;5.60;;;5.10;;
14358;SDS011;7263;49.418;11.064;2022-09-29T08:09:32;6.30;;;4.70;;
14358;SDS011;7263;49.418;11.064;2022-09-29T08:12:01;5.17;;;4.30;;
14358;SDS011;7263;49.418;11.064;2022-09-29T08:14:28;5.53;;;4.70;;
14358;SDS011;7263;49.418;11.064;2022-09-29T08:16:55;4.63;;;4.23;;
14358;SDS011;7263;49.418;11.064;2022-09-29T08:19:22;4.93;;;4.53;;
14358;SDS011;7263;49.418;11.064;2022-09-29T08:21:51;5.40;;;4.90;;
14358;SDS011;7263;49.418;11.064;2022-09-29T08:24:18;6.97;;;4.77;;
14358;SDS011;7263;49.418;11.064;2022-09-29T08:26:45;4.70;;;4.30;;
14358;SDS011;7263;49.418;11.064;2022-09-29T08:29:13;4.77;;;4.37;;
14358;SDS011;7263;49.418;11.064;2022-09-29T08:31:40;4.13;;;3.77;;
14358;SDS011;7263;49.418;11.064;2022-09-29T08:34:08;4.50;;;4.10;;
14358;SDS011;7263;49.418;11.064;2022-09-29T08:36:35;4.50;;;4.10;;
14358;SDS011;7263;49.418;11.064;2022-09-29T08:39:02;4.27;;;3.87;;
14358;SDS011;7263;49.418;11.064;2022-09-29T08:41:33;4.70;;;4.00;;
14358;SDS011;7263;49.418;11.064;2022-09-29T08:44:11;3.93;;;3.57;;
14358;SDS011;7263;49.418;11.064;2022-09-29T08:46:45;5.07;;;4.23;;
14358;SDS011;7263;49.418;11.064;2022-09-29T08:49:15;4.63;;;3.90;;
14358;SDS011;7263;49.418;11.064;2022-09-29T08:51:46;3.90;;;3.60;;
14358;SDS011;7263;49.418;11.064;2022-09-29T08:54:20;4.87;;;4.00;;
14358;SDS011;7263;49.418;11.064;2022-09-29T08:56:52;3.60;;;3.30;;
14358;SDS011;7263;49.418;11.064;2022-09-29T08:59:23;3.67;;;3.30;;
14358;SDS011;7263;49.418;11.064;2022-09-29T09:02:04;4.63;;;4.00;;
14358;SDS011;7263;49.418;11.064;2022-09-29T09:05:00;3.97;;;3.57;;
14358;SDS011;7263;49.418;11.064;2022-09-29T09:07:41;4.40;;;3.50;;
14358;SDS011;7263;49.418;11.064;2022-09-29T09:10:20;3.40;;;3.10;;
14358;SDS011;7263;49.418;11.064;2022-09-29T09:12:59;3.80;;;3.43;;
14358;SDS011;7263;49.418;11.064;2022-09-29T09:15:40;3.37;;;3.03;;
14358;SDS011;7263;49.418;11.064;2022-09-29T09:18:35;4.60;;;3.17;;
14358;SDS011;7263;49.418;11.064;2022-09-29T09:21:15;3.17;;;2.97;;
14358;SDS011;7263;49.418;11.064;2022-09-29T09:23:50;4.33;;;3.13;;
14358;SDS011;7263;49.418;11.064;2022-09-29T09:26:21;3.80;;;3.07;;
14358;SDS011;7263;49.418;11.064;2022-09-29T09:28:57;3.30;;;3.00;;
14358;SDS011;7263;49.418;11.064;2022-09-29T09:31:32;3.90;;;3.03;;
14358;SDS011;7263;49.418;11.064;2022-09-29T09:34:05;3.27;;;2.90;;
14358;SDS011;7263;49.418;11.064;2022-09-29T09:36:39;3.23;;;2.90;;
14358;SDS011;7263;49.418;11.064;2022-09-29T09:39:10;3.60;;;3.10;;
14358;SDS011;7263;49.418;11.064;2022-09-29T09:41:40;14.60;;;8.50;;
14358;SDS011;7263;49.418;11.064;2022-09-29T09:44:11;7.83;;;5.20;;
14358;SDS011;7263;49.418;11.064;2022-09-29T09:46:44;4.23;;;3.00;;
14358;SDS011;7263;49.418;11.064;2022-09-29T09:49:16;9.40;;;6.53;;
14358;SDS011;7263;49.418;11.064;2022-09-29T09:51:48;10.43;;;6.00;;
14358;SDS011;7263;49.418;11.064;2022-09-29T09:54:25;5.93;;;3.53;;
14358;SDS011;7263;49.418;11.064;2022-09-29T09:57:05;3.73;;;3.40;;
14358;SDS011;7263;49.418;11.064;2022-09-29T09:59:59;3.80;;;3.40;;
14358;SDS011;7263;49.418;11.064;2022-09-29T10:02:33;4.30;;;3.30;;
14358;SDS011;7263;49.418;11.064;2022-09-29T10:05:00;5.83;;;3.57;;
14358;SDS011;7263;49.418;11.064;2022-09-29T10:07:27;5.03;;;3.60;;
14358;SDS011;7263;49.418;11.064;2022-09-29T10:09:55;4.30;;;3.43;;
14358;SDS011;7263;49.418;11.064;2022-09-29T10:12:27;3.93;;;3.47;;
14358;SDS011;7263;49.418;11.064;2022-09-29T10:14:56;5.53;;;3.90;;
14358;SDS011;7263;49.418;11.064;2022-09-29T10:17:29;5.50;;;3.30;;
14358;SDS011;7263;49.418;11.064;2022-09-29T10:20:04;4.40;;;3.43;;
14358;SDS011;7263;49.418;11.064;2022-09-29T10:22:33;4.40;;;3.57;;
14358;SDS011;7263;49.418;11.064;2022-09-29T10:25:07;4.00;;;3.27;;
14358;SDS011;7263;49.418;11.064;2022-09-29T10:27:43;3.87;;;3.47;;
14358;SDS011;7263;49.418;11.064;2022-09-29T10:30:17;5.47;;;3.73;;
14358;SDS011;7263;49.418;11.064;2022-09-29T10:32:46;3.57;;;3.13;;
14358;SDS011;7263;49.418;11.064;2022-09-29T10:35:19;5.57;;;3.40;;
14358;SDS011;7263;49.418;11.064;2022-09-29T10:37:51;3.93;;;3.30;;
14358;SDS011;7263;49.418;11.064;2022-09-29T10:40:26;4.70;;;3.40;;
14358;SDS011;7263;49.418;11.064;2022-09-29T10:42:54;5.37;;;3.57;;
14358;SDS011;7263;49.418;11.064;2022-09-29T10:45:22;3.67;;;3.20;;
14358;SDS011;7263;49.418;11.064;2022-09-29T10:48:05;4.97;;;3.20;;
14358;SDS011;7263;49.418;11.064;2022-09-29T10:50:35;5.03;;;3.07;;
14358;SDS011;7263;49.418;11.064;2022-09-29T10:53:17;5.07;;;3.20;;
14358;SDS011;7263;49.418;11.064;2022-09-29T10:55:48;5.23;;;3.43;;
14358;SDS011;7263;49.418;11.064;2022-09-29T10:58:19;4.13;;;3.20;;
14358;SDS011;7263;49.418;11.064;2022-09-29T11:01:00;3.47;;;2.87;;
14358;SDS011;7263;49.418;11.064;2022-09-29T11:03:31;4.37;;;2.83;;
14358;SDS011;7263;49.418;11.064;2022-09-29T11:06:03;2.73;;;2.23;;
14358;SDS011;7263;49.418;11.064;2022-09-29T11:08:31;5.37;;;2.90;;
14358;SDS011;7263;49.418;11.064;2022-09-29T11:11:02;4.17;;;2.43;;
14358;SDS011;7263;49.418;11.064;2022-09-29T11:13:35;5.30;;;2.47;;
14358;SDS011;7263;49.418;11.064;2022-09-29T11:16:04;3.37;;;2.27;;
14358;SDS011;7263;49.418;11.064;2022-09-29T11:18:39;3.70;;;2.53;;
14358;SDS011;7263;49.418;11.064;2022-09-29T11:21:21;3.40;;;2.10;;
14358;SDS011;7263;49.418;11.064;2022-09-29T11:24:10;4.40;;;2.60;;
14358;SDS011;7263;49.418;11.064;2022-09-29T11:26:50;4.53;;;2.77;;
14358;SDS011;7263;49.418;11.064;2022-09-29T11:29:26;2.60;;;2.40;;
14358;SDS011;7263;49.418;11.064;2022-09-29T11:32:14;3.97;;;2.27;;
14358;SDS011;7263;49.418;11.064;2022-09-29T11:34:59;2.80;;;2.50;;
14358;SDS011;7263;49.418;11.064;2022-09-29T11:37:42;3.57;;;2.20;;
14358;SDS011;7263;49.418;11.064;2022-09-29T11:40:22;3.83;;;2.83;;
14358;SDS011;7263;49.418;11.064;2022-09-29T11:43:03;6.07;;;2.90;;
14358;SDS011;7263;49.418;11.064;2022-09-29T11:45:39;4.17;;;2.67;;
14358;SDS011;7263;49.418;11.064;2022-09-29T11:51:12;4.37;;;3.13;;
14358;SDS011;7263;49.418;11.064;2022-09-29T11:53:56;3.93;;;2.40;;
14358;SDS011;7263;49.418;11.064;2022-09-29T11:56:33;5.30;;;2.37;;
14358;SDS011;7263;49.418;11.064;2022-09-29T11:59:08;4.03;;;2.70;;
14358;SDS011;7263;49.418;11.064;2022-09-29T12:01:50;4.00;;;2.80;;
14358;SDS011;7263;49.418;11.064;2022-09-29T12:04:32;3.40;;;2.87;;
14358;SDS011;7263;49.418;11.064;2022-09-29T12:07:13;2.97;;;2.60;;
14358;SDS011;7263;49.418;11.064;2022-09-29T12:10:00;6.67;;;3.40;;
14358;SDS011;7263;49.418;11.064;2022-09-29T12:12:38;4.40;;;3.20;;
14358;SDS011;7263;49.418;11.064;2022-09-29T12:15:14;5.33;;;3.17;;
14358;SDS011;7263;49.418;11.064;2022-09-29T12:17:48;4.10;;;3.43;;
14358;SDS011;7263;49.418;11.064;2022-09-29T12:20:19;4.40;;;3.10;;
14358;SDS011;7263;49.418;11.064;2022-09-29T12:22:49;3.93;;;3.53;;
14358;SDS011;7263;49.418;11.064;2022-09-29T12:25:20;4.03;;;3.03;;
14358;SDS011;7263;49.418;11.064;2022-09-29T12:27:50;4.17;;;3.10;;
14358;SDS011;7263;49.418;11.064;2022-09-29T12:30:20;4.73;;;2.83;;
14358;SDS011;7263;49.418;11.064;2022-09-29T12:32:54;6.77;;;3.07;;
14358;SDS011;7263;49.418;11.064;2022-09-29T12:35:27;5.10;;;3.23;;
14358;SDS011;7263;49.418;11.064;2022-09-29T12:38:09;6.50;;;2.80;;
14358;SDS011;7263;49.418;11.064;2022-09-29T12:40:43;5.20;;;3.03;;
14358;SDS011;7263;49.418;11.064;2022-09-29T12:43:16;4.10;;;3.13;;
14358;SDS011;7263;49.418;11.064;2022-09-29T12:45:53;5.23;;;3.47;;
14358;SDS011;7263;49.418;11.064;2022-09-29T12:48:33;4.67;;;3.03;;
14358;SDS011;7263;49.418;11.064;2022-09-29T12:51:09;6.00;;;3.57;;
14358;SDS011;7263;49.418;11.064;2022-09-29T12:53:39;4.00;;;3.00;;
14358;SDS011;7263;49.418;11.064;2022-09-29T12:56:23;4.23;;;2.90;;
14358;SDS011;7263;49.418;11.064;2022-09-29T12:58:55;4.30;;;3.23;;
14358;SDS011;7263;49.418;11.064;2022-09-29T13:01:28;5.20;;;3.17;;
14358;SDS011;7263;49.418;11.064;2022-09-29T13:10:19;4.83;;;3.33;;
14358;SDS011;7263;49.418;11.064;2022-09-29T13:13:00;5.23;;;3.00;;
14358;SDS011;7263;49.418;11.064;2022-09-29T13:21:38;4.83;;;2.90;;
14358;SDS011;7263;49.418;11.064;2022-09-29T13:24:18;3.87;;;2.33;;
14358;SDS011;7263;49.418;11.064;2022-09-29T13:27:10;2.77;;;2.20;;
14358;SDS011;7263;49.418;11.064;2022-09-29T13:29:52;4.37;;;1.90;;
14358;SDS011;7263;49.418;11.064;2022-09-29T13:32:23;3.07;;;1.90;;
14358;SDS011;7263;49.418;11.064;2022-09-29T13:34:52;2.43;;;1.40;;
14358;SDS011;7263;49.418;11.064;2022-09-29T13:37:21;2.00;;;1.60;;
14358;SDS011;7263;49.418;11.064;2022-09-29T13:39:52;2.33;;;1.80;;
14358;SDS011;7263;49.418;11.064;2022-09-29T13:45:14;2.20;;;1.30;;
14358;SDS011;7263;49.418;11.064;2022-09-29T13:51:00;2.87;;;1.70;;
14358;SDS011;7263;49.418;11.064;2022-09-29T13:53:49;2.80;;;1.60;;
14358;SDS011;7263;49.418;11.064;2022-09-29T13:56:46;4.43;;;2.10;;
14358;SDS011;7263;49.418;11.064;2022-09-29T13:59:14;2.87;;;1.53;;
14358;SDS011;7263;49.418;11.064;2022-09-29T14:01:51;2.87;;;1.80;;
14358;SDS011;7263;49.418;11.064;2022-09-29T14:07:11;2.50;;;2.13;;
14358;SDS011;7263;49.418;11.064;2022-09-29T14:09:39;4.23;;;2.40;;
14358;SDS011;7263;49.418;11.064;2022-09-29T14:12:14;3.40;;;2.40;;
14358;SDS011;7263;49.418;11.064;2022-09-29T14:14:43;4.00;;;2.53;;
14358;SDS011;7263;49.418;11.064;2022-09-29T14:17:19;2.63;;;2.27;;
14358;SDS011;7263;49.418;11.064;2022-09-29T14:19:51;3.33;;;1.97;;
14358;SDS011;7263;49.418;11.064;2022-09-29T14:31:19;3.50;;;1.90;;
14358;SDS011;7263;49.418;11.064;2022-09-29T14:33:49;2.57;;;2.00;;
14358;SDS011;7263;49.418;11.064;2022-09-29T14:36:20;3.07;;;1.90;;
14358;SDS011;7263;49.418;11.064;2022-09-29T14:38:50;4.50;;;2.77;;
14358;SDS011;7263;49.418;11.064;2022-09-29T14:41:24;2.63;;;2.30;;
14358;SDS011;7263;49.418;11.064;2022-09-29T14:43:57;4.07;;;2.77;;
14358;SDS011;7263;49.418;11.064;2022-09-29T14:50:01;3.97;;;2.50;;
14358;SDS011;7263;49.418;11.064;2022-09-29T14:53:07;2.90;;;2.20;;
14358;SDS011;7263;49.418;11.064;2022-09-29T14:55:48;2.20;;;1.90;;
14358;SDS011;7263;49.418;11.064;2022-09-29T14:58:27;4.10;;;2.97;;
14358;SDS011;7263;49.418;11.064;2022-09-29T15:01:04;2.93;;;2.63;;
14358;SDS011;7263;49.418;11.064;2022-09-29T15:03:39;3.70;;;2.70;;
14358;SDS011;7263;49.418;11.064;2022-09-29T15:06:12;4.27;;;2.80;;
14358;SDS011;7263;49.418;11.064;2022-09-29T15:08:40;4.27;;;2.63;;
14358;SDS011;7263;49.418;11.064;2022-09-29T15:14:01;5.50;;;2.73;;
14358;SDS011;7263;49.418;11.064;2022-09-29T15:16:51;4.07;;;2.30;;
14358;SDS011;7263;49.418;11.064;2022-09-29T15:19:35;3.63;;;2.13;;
14358;SDS011;7263;49.418;11.064;2022-09-29T15:22:16;4.53;;;2.63;;
14358;SDS011;7263;49.418;11.064;2022-09-29T15:25:02;4.97;;;2.50;;
14358;SDS011;7263;49.418;11.064;2022-09-29T15:27:39;4.13;;;2.53;;
14358;SDS011;7263;49.418;11.064;2022-09-29T15:30:11;5.40;;;2.40;;
14358;SDS011;7263;49.418;11.064;2022-09-29T15:32:41;5.20;;;2.30;;
14358;SDS011;7263;49.418;11.064;2022-09-29T15:35:10;3.00;;;2.37;;
14358;SDS011;7263;49.418;11.064;2022-09-29T15:37:56;3.87;;;2.77;;
14358;SDS011;7263;49.418;11.064;2022-09-29T15:40:44;4.47;;;3.20;;
14358;SDS011;7263;49.418;11.064;2022-09-29T15:43:19;5.97;;;2.73;;
14358;SDS011;7263;49.418;11.064;2022-09-29T15:45:51;2.30;;;2.10;;
14358;SDS011;7263;49.418;11.064;2022-09-29T15:48:20;2.83;;;2.50;;
14358;SDS011;7263;49.418;11.064;2022-09-29T15:50:57;3.10;;;2.50;;
14358;SDS011;7263;49.418;11.064;2022-09-29T15:53:30;3.60;;;2.33;;
14358;SDS011;7263;49.418;11.064;2022-09-29T15:55:57;3.40;;;2.40;;
14358;SDS011;7263;49.418;11.064;2022-09-29T15:58:34;2.80;;;2.30;;
14358;SDS011;7263;49.418;11.064;2022-09-29T16:01:05;5.73;;;3.03;;